Delton, Michigan
Current Conditions -  °F | °C
As of 6:53 PM on Wednesday 28 Jan 2015 (Local Time) from KBTL Reporting Station
Clear Clear  
Wind Chill: 17°   Ceiling: Unl
Heat Index: 27°   Visibility: 10mi
Dew Point:   Wind: 12mph
Humidity: 41%   Direction: 150°SSE
Pressure: 30.13"   Gusts: NA
Location:  42.5°N, 85.41°W
Report Text: KBTL 282353Z 15010KT 10SM CLR M03/M14 A3013 RMK AO2 SLP220 T10281144 11006 21028 58020
Loading
Personal Weather Stations






























Interactive Weather Map New forecast layout! Learn more

10-Day Weather Forecast

Advertisements
Track Severe Weather on mobile